createdAt,value
2019-05-26T00:00:05.263Z,978.00
2019-05-26T00:01:04.793Z,978.00
2019-05-26T00:02:04.951Z,977.98
2019-05-26T00:03:05.133Z,977.95
2019-05-26T00:04:04.885Z,978.03
2019-05-26T00:05:04.521Z,977.92
2019-05-26T00:06:04.579Z,977.86
2019-05-26T00:07:04.986Z,977.98
2019-05-26T00:08:05.319Z,977.86
2019-05-26T00:09:05.455Z,977.78
2019-05-26T00:10:05.546Z,977.92
2019-05-26T00:11:04.965Z,977.92
2019-05-26T00:12:04.912Z,978.01
2019-05-26T00:13:05.204Z,977.98
2019-05-26T00:14:04.550Z,977.84
2019-05-26T00:15:04.631Z,977.87
2019-05-26T00:16:05.137Z,977.90
2019-05-26T00:17:05.207Z,977.84
2019-05-26T00:18:05.127Z,977.78
2019-05-26T00:19:05.259Z,977.73
2019-05-26T00:20:04.790Z,977.87
2019-05-26T00:21:04.946Z,977.84
2019-05-26T00:22:04.965Z,977.87
2019-05-26T00:23:04.809Z,977.81
2019-05-26T00:24:05.047Z,977.78
2019-05-26T00:25:05.395Z,977.87
2019-05-26T00:26:04.771Z,977.87
2019-05-26T00:27:04.926Z,977.76
2019-05-26T00:28:04.952Z,977.81
2019-05-26T00:29:05.236Z,977.81
2019-05-26T00:30:05.224Z,977.96
2019-05-26T00:31:05.393Z,977.99
2019-05-26T00:32:04.738Z,977.93
2019-05-26T00:33:04.930Z,977.82
2019-05-26T00:34:04.950Z,977.90
2019-05-26T00:35:04.712Z,977.82
2019-05-26T00:36:04.853Z,977.99
2019-05-26T00:37:05.038Z,977.85
2019-05-26T00:38:05.020Z,977.93
2019-05-26T00:39:05.209Z,977.93
2019-05-26T00:40:05.317Z,977.79
2019-05-26T00:41:05.345Z,977.88
2019-05-26T00:42:05.323Z,977.93
2019-05-26T00:43:05.475Z,977.82
2019-05-26T00:44:09.527Z,977.93
2019-05-26T00:45:04.905Z,977.99
2019-05-26T00:46:05.449Z,977.88
2019-05-26T00:47:04.579Z,977.91
2019-05-26T00:48:05.030Z,977.94
2019-05-26T00:49:05.068Z,977.91
2019-05-26T00:50:04.717Z,977.99
2019-05-26T00:51:05.045Z,977.94
2019-05-26T00:52:05.097Z,977.85
2019-05-26T00:53:04.755Z,977.88
2019-05-26T00:54:05.293Z,977.88
2019-05-26T00:55:04.900Z,977.86
2019-05-26T00:56:05.159Z,977.86
2019-05-26T00:57:04.748Z,977.94
2019-05-26T00:58:05.436Z,977.89
2019-05-26T00:59:04.489Z,977.89
2019-05-26T01:00:04.555Z,977.83
2019-05-26T01:01:05.233Z,977.81
2019-05-26T01:02:05.340Z,977.86
2019-05-26T01:03:05.370Z,977.69
2019-05-26T01:04:05.071Z,977.78
2019-05-26T01:05:05.210Z,977.75
2019-05-26T01:06:04.559Z,977.81
2019-05-26T01:07:04.630Z,977.81
2019-05-26T01:08:07.140Z,977.87
2019-05-26T01:09:04.728Z,977.87
2019-05-26T01:10:05.351Z,977.76
2019-05-26T01:11:10.354Z,977.73
2019-05-26T01:12:04.757Z,977.76
2019-05-26T01:13:05.401Z,977.84
2019-05-26T01:14:04.642Z,977.87
2019-05-26T01:15:04.571Z,977.85
2019-05-26T01:16:04.787Z,977.82
2019-05-26T01:17:05.235Z,977.90
2019-05-26T01:18:04.654Z,977.90
2019-05-26T01:19:05.348Z,977.79
2019-05-26T01:20:05.221Z,977.96
2019-05-26T01:21:05.436Z,977.88
2019-05-26T01:22:05.130Z,977.88
2019-05-26T01:23:04.618Z,977.88
2019-05-26T01:24:05.042Z,977.99
2019-05-26T01:25:05.366Z,977.77
2019-05-26T01:26:04.531Z,977.94
2019-05-26T01:27:05.040Z,977.82
2019-05-26T01:28:04.519Z,977.74
2019-05-26T01:29:04.781Z,977.66
2019-05-26T01:30:05.197Z,977.77
2019-05-26T01:31:05.505Z,977.74
2019-05-26T01:32:04.885Z,977.66
2019-05-26T01:33:05.068Z,977.80
2019-05-26T01:34:05.332Z,977.72
2019-05-26T01:35:05.378Z,977.61
2019-05-26T01:36:04.912Z,977.72
2019-05-26T01:37:05.491Z,977.77
2019-05-26T01:38:04.508Z,977.80
2019-05-26T01:39:04.986Z,977.69
2019-05-26T01:40:04.555Z,977.61
2019-05-26T01:41:04.755Z,977.69
2019-05-26T01:42:05.222Z,977.75
2019-05-26T01:43:05.473Z,977.75
2019-05-26T01:44:04.816Z,977.69
2019-05-26T01:45:04.543Z,977.75
2019-05-26T01:46:04.627Z,977.75
2019-05-26T01:47:05.267Z,977.81
2019-05-26T01:48:04.550Z,977.84
2019-05-26T01:49:04.513Z,977.84
2019-05-26T01:50:05.217Z,977.81
2019-05-26T01:51:04.624Z,977.78
2019-05-26T01:52:04.686Z,977.81
2019-05-26T01:53:05.288Z,977.67
2019-05-26T01:54:04.735Z,977.62
2019-05-26T01:55:04.736Z,977.67
2019-05-26T01:56:04.947Z,977.70
2019-05-26T01:57:04.946Z,977.70
2019-05-26T01:58:05.123Z,977.76
2019-05-26T01:59:05.256Z,977.70
2019-05-26T02:00:04.932Z,977.65
2019-05-26T02:01:04.933Z,977.65
2019-05-26T02:02:05.157Z,977.65
2019-05-26T02:03:04.600Z,977.68
2019-05-26T02:04:05.020Z,977.60
2019-05-26T02:05:09.573Z,977.57
2019-05-26T02:06:05.090Z,977.68
2019-05-26T02:07:05.107Z,977.68
2019-05-26T02:08:04.603Z,977.77
2019-05-26T02:09:04.825Z,977.74
2019-05-26T02:10:05.441Z,977.58
2019-05-26T02:11:04.958Z,977.65
2019-05-26T02:12:05.342Z,977.80
2019-05-26T02:13:05.483Z,977.65
2019-05-26T02:14:04.451Z,977.68
2019-05-26T02:15:04.633Z,977.68
2019-05-26T02:16:05.139Z,977.58
2019-05-26T02:17:05.148Z,977.66
2019-05-26T02:18:04.809Z,977.61
2019-05-26T02:19:05.232Z,977.58
2019-05-26T02:20:04.980Z,977.44
2019-05-26T02:21:04.445Z,977.66
2019-05-26T02:22:04.804Z,977.72
2019-05-26T02:23:05.348Z,977.66
2019-05-26T02:24:04.995Z,977.56
2019-05-26T02:25:05.303Z,977.53
2019-05-26T02:26:04.996Z,977.72
2019-05-26T02:27:05.418Z,977.56
2019-05-26T02:28:04.449Z,977.59
2019-05-26T02:29:05.059Z,977.53
2019-05-26T02:30:05.023Z,977.56
2019-05-26T02:31:04.550Z,977.56
2019-05-26T02:32:04.890Z,977.56
2019-05-26T02:33:05.388Z,977.48
2019-05-26T02:34:04.926Z,977.67
2019-05-26T02:35:04.967Z,977.56
2019-05-26T02:36:05.403Z,977.51
2019-05-26T02:37:04.482Z,977.62
2019-05-26T02:38:05.285Z,977.54
2019-05-26T02:39:04.724Z,977.73
2019-05-26T02:40:04.713Z,977.51
2019-05-26T02:41:04.758Z,977.51
2019-05-26T02:42:05.068Z,977.51
2019-05-26T02:43:04.957Z,977.51
2019-05-26T02:44:10.138Z,977.51
2019-05-26T02:45:04.591Z,977.54
2019-05-26T02:46:04.768Z,977.57
2019-05-26T02:47:05.415Z,977.54
2019-05-26T02:48:04.582Z,977.52
2019-05-26T02:49:04.761Z,977.49
2019-05-26T02:50:04.911Z,977.49
2019-05-26T02:51:05.163Z,977.49
2019-05-26T02:52:05.491Z,977.46
2019-05-26T02:53:04.493Z,977.46
2019-05-26T02:54:05.289Z,977.46
2019-05-26T02:55:05.127Z,977.49
2019-05-26T02:56:04.663Z,977.49
2019-05-26T02:57:05.077Z,977.52
2019-05-26T02:58:05.321Z,977.58
2019-05-26T02:59:05.385Z,977.32
2019-05-26T03:00:04.672Z,977.44
2019-05-26T03:01:04.688Z,977.47
2019-05-26T03:02:05.476Z,977.52
2019-05-26T03:03:04.779Z,977.49
2019-05-26T03:04:04.832Z,977.58
2019-05-26T03:05:04.605Z,977.44
2019-05-26T03:06:04.556Z,977.38
2019-05-26T03:07:04.691Z,977.38
2019-05-26T03:08:05.068Z,977.38
2019-05-26T03:09:23.435Z,977.36
2019-05-26T03:10:04.741Z,977.53
2019-05-26T03:11:05.186Z,977.47
2019-05-26T03:12:04.774Z,977.41
2019-05-26T03:13:05.352Z,977.50
2019-05-26T03:14:05.484Z,977.44
2019-05-26T03:15:05.337Z,977.36
2019-05-26T03:16:05.206Z,977.50
2019-05-26T03:17:05.576Z,977.42
2019-05-26T03:18:04.771Z,977.36
2019-05-26T03:19:04.750Z,977.48
2019-05-26T03:20:05.122Z,977.45
2019-05-26T03:21:04.649Z,977.39
2019-05-26T03:22:05.157Z,977.28
2019-05-26T03:23:05.284Z,977.42
2019-05-26T03:24:05.140Z,977.36
2019-05-26T03:25:05.109Z,977.33
2019-05-26T03:26:05.256Z,977.45
2019-05-26T03:27:05.429Z,977.25
2019-05-26T03:28:05.082Z,977.42
2019-05-26T03:29:05.124Z,977.42
2019-05-26T03:30:05.443Z,977.36
2019-05-26T03:31:05.028Z,977.42
2019-05-26T03:32:05.200Z,977.39
2019-05-26T03:33:05.061Z,977.45
2019-05-26T03:34:04.843Z,977.39
2019-05-26T03:35:04.977Z,977.48
2019-05-26T03:36:05.315Z,977.39
2019-05-26T03:37:04.775Z,977.45
2019-05-26T03:38:05.587Z,977.31
2019-05-26T03:39:04.994Z,977.50
2019-05-26T03:40:04.509Z,977.45
2019-05-26T03:41:05.435Z,977.42
2019-05-26T03:42:05.118Z,977.25
2019-05-26T03:43:04.598Z,977.42
2019-05-26T03:44:10.173Z,977.44
2019-05-26T03:45:04.457Z,977.39
2019-05-26T03:46:05.305Z,977.33
2019-05-26T03:47:05.378Z,977.53
2019-05-26T03:48:05.491Z,977.44
2019-05-26T03:49:04.550Z,977.27
2019-05-26T03:50:04.781Z,977.44
2019-05-26T03:51:04.986Z,977.27
2019-05-26T03:52:04.590Z,977.41
2019-05-26T03:53:05.102Z,977.36
2019-05-26T03:54:05.162Z,977.30
2019-05-26T03:55:04.847Z,977.44
2019-05-26T03:56:05.203Z,977.54
2019-05-26T03:57:04.715Z,977.51
2019-05-26T03:58:04.747Z,977.51
2019-05-26T03:59:04.973Z,977.56
2019-05-26T04:00:04.621Z,977.47
2019-05-26T04:01:04.615Z,977.43
2019-05-26T04:02:05.098Z,977.40
2019-05-26T04:03:05.368Z,977.53
2019-05-26T04:04:04.740Z,977.42
2019-05-26T04:05:04.934Z,977.47
2019-05-26T04:06:04.991Z,977.55
2019-05-26T04:07:05.102Z,977.31
2019-05-26T04:08:05.879Z,977.19
2019-05-26T04:09:04.861Z,977.24
2019-05-26T04:10:06.805Z,977.24
2019-05-26T04:11:04.592Z,977.17
2019-05-26T04:12:04.918Z,977.23
2019-05-26T04:13:05.044Z,977.42
2019-05-26T04:14:05.128Z,977.30
2019-05-26T04:15:05.392Z,977.23
2019-05-26T04:16:04.872Z,977.26
2019-05-26T04:17:05.048Z,977.39
2019-05-26T04:18:05.206Z,977.33
2019-05-26T04:19:04.518Z,977.30
2019-05-26T04:20:04.711Z,977.26
2019-05-26T04:21:05.436Z,977.25
2019-05-26T04:22:04.877Z,977.28
2019-05-26T04:23:04.947Z,977.19
2019-05-26T04:24:05.014Z,977.29
2019-05-26T04:25:05.608Z,977.26
2019-05-26T04:26:05.247Z,977.28
2019-05-26T04:27:05.226Z,977.13
2019-05-26T04:28:04.602Z,977.21
2019-05-26T04:29:04.808Z,977.35
2019-05-26T04:30:05.058Z,977.14
2019-05-26T04:31:04.551Z,977.16
2019-05-26T04:32:04.916Z,977.19
2019-05-26T04:33:05.125Z,977.18
2019-05-26T04:34:04.483Z,977.18
2019-05-26T04:35:05.084Z,977.32
2019-05-26T04:36:04.756Z,977.22
2019-05-26T04:37:05.143Z,977.16
2019-05-26T04:38:04.513Z,977.16
2019-05-26T04:39:04.591Z,977.12
2019-05-26T04:40:27.442Z,977.09
2019-05-26T04:41:05.436Z,977.34
2019-05-26T04:42:04.661Z,977.08
2019-05-26T04:43:04.773Z,977.16
2019-05-26T04:44:10.059Z,977.15
2019-05-26T04:45:04.571Z,977.12
2019-05-26T04:46:04.904Z,977.06
2019-05-26T04:47:07.072Z,977.14
2019-05-26T04:48:05.340Z,977.13
2019-05-26T04:49:04.755Z,977.01
2019-05-26T04:50:05.437Z,977.04
2019-05-26T04:51:04.650Z,977.21
2019-05-26T04:52:05.345Z,977.26
2019-05-26T04:53:07.672Z,977.25
2019-05-26T04:54:05.267Z,977.14
2019-05-26T04:55:04.694Z,977.27
2019-05-26T04:56:04.933Z,977.27
2019-05-26T04:57:05.233Z,977.38
2019-05-26T04:58:04.770Z,977.18
2019-05-26T04:59:05.393Z,977.12
2019-05-26T05:00:05.388Z,977.23
2019-05-26T05:01:04.672Z,977.28
2019-05-26T05:02:05.052Z,977.16
2019-05-26T05:03:04.734Z,977.10
2019-05-26T05:04:04.776Z,977.16
2019-05-26T05:05:05.372Z,977.24
2019-05-26T05:06:04.742Z,977.21
2019-05-26T05:07:04.907Z,977.18
2019-05-26T05:08:05.217Z,977.29
2019-05-26T05:09:04.739Z,977.23
2019-05-26T05:10:10.428Z,977.22
2019-05-26T05:11:04.853Z,977.31
2019-05-26T05:12:05.054Z,977.30
2019-05-26T05:13:05.341Z,977.24
2019-05-26T05:14:04.854Z,977.18
2019-05-26T05:15:05.398Z,977.27
2019-05-26T05:16:04.831Z,977.24
2019-05-26T05:17:04.867Z,977.26
2019-05-26T05:18:05.008Z,977.26
2019-05-26T05:19:04.567Z,977.23
2019-05-26T05:20:04.880Z,977.31
2019-05-26T05:21:05.289Z,977.25
2019-05-26T05:22:04.902Z,977.13
2019-05-26T05:23:04.991Z,977.30
2019-05-26T05:24:04.835Z,977.24
2019-05-26T05:25:15.329Z,977.33
2019-05-26T05:26:05.263Z,977.23
2019-05-26T05:27:04.959Z,977.26
2019-05-26T05:28:05.001Z,977.14
2019-05-26T05:29:04.768Z,977.17
2019-05-26T05:30:05.106Z,977.19
2019-05-26T05:31:04.751Z,977.13
2019-05-26T05:32:04.704Z,977.25
2019-05-26T05:33:05.257Z,977.27
2019-05-26T05:34:04.859Z,977.15
2019-05-26T05:35:05.302Z,977.24
2019-05-26T05:36:04.791Z,977.18
2019-05-26T05:37:04.629Z,977.21
2019-05-26T05:38:04.775Z,977.29
2019-05-26T05:39:05.230Z,977.20
2019-05-26T05:40:04.849Z,977.09
2019-05-26T05:41:05.001Z,977.14
2019-05-26T05:42:04.618Z,977.25
2019-05-26T05:43:05.099Z,977.20
2019-05-26T05:44:10.370Z,977.23
2019-05-26T05:45:04.867Z,977.17
2019-05-26T05:46:04.948Z,977.22
2019-05-26T05:47:05.203Z,977.34
2019-05-26T05:48:05.451Z,977.28
2019-05-26T05:49:04.537Z,977.25
2019-05-26T05:50:04.905Z,977.16
2019-05-26T05:51:04.618Z,977.07
2019-05-26T05:52:04.688Z,977.18
2019-05-26T05:53:04.816Z,977.12
2019-05-26T05:54:05.426Z,977.15
2019-05-26T05:55:04.886Z,977.23
2019-05-26T05:56:05.100Z,977.20
2019-05-26T05:57:05.526Z,977.14
2019-05-26T05:58:04.625Z,977.22
2019-05-26T05:59:05.089Z,977.25
2019-05-26T06:00:04.857Z,977.10
2019-05-26T06:01:05.102Z,977.07
2019-05-26T06:02:05.091Z,977.09
2019-05-26T06:03:06.196Z,977.06
2019-05-26T06:04:04.713Z,977.23
2019-05-26T06:05:04.559Z,977.11
2019-05-26T06:06:05.034Z,977.17
2019-05-26T06:07:04.782Z,977.13
2019-05-26T06:08:05.058Z,977.13
2019-05-26T06:09:05.363Z,977.16
2019-05-26T06:10:04.976Z,977.16
2019-05-26T06:11:17.336Z,977.15
2019-05-26T06:12:05.206Z,977.32
2019-05-26T06:13:05.303Z,977.12
2019-05-26T06:14:04.874Z,977.12
2019-05-26T06:15:05.295Z,977.20
2019-05-26T06:16:04.795Z,977.11
2019-05-26T06:17:05.601Z,977.28
2019-05-26T06:18:04.561Z,977.17
2019-05-26T06:19:04.677Z,977.28
2019-05-26T06:20:05.219Z,977.25
2019-05-26T06:21:05.352Z,977.25
2019-05-26T06:22:04.834Z,977.24
2019-05-26T06:23:05.235Z,977.24
2019-05-26T06:24:05.462Z,977.21
2019-05-26T06:25:04.753Z,977.18
2019-05-26T06:26:05.025Z,977.18
2019-05-26T06:27:05.487Z,977.24
2019-05-26T06:28:05.218Z,977.30
2019-05-26T06:29:05.222Z,977.32
2019-05-26T06:30:05.014Z,977.12
2019-05-26T06:31:05.575Z,977.21
2019-05-26T06:32:05.185Z,977.12
2019-05-26T06:33:05.277Z,977.32
2019-05-26T06:34:05.380Z,977.24
2019-05-26T06:35:05.100Z,977.24
2019-05-26T06:36:05.269Z,977.24
2019-05-26T06:37:04.668Z,977.23
2019-05-26T06:38:05.439Z,977.23
2019-05-26T06:39:04.961Z,977.32
2019-05-26T06:40:05.337Z,977.14
2019-05-26T06:41:04.797Z,977.28
2019-05-26T06:42:04.594Z,977.25
2019-05-26T06:43:04.484Z,977.13
2019-05-26T06:44:09.643Z,977.16
2019-05-26T06:45:05.061Z,977.13
2019-05-26T06:46:04.738Z,977.19
2019-05-26T06:47:04.837Z,977.10
2019-05-26T06:48:04.937Z,977.10
2019-05-26T06:49:05.063Z,977.22
2019-05-26T06:50:04.755Z,977.22
2019-05-26T06:51:04.990Z,977.21
2019-05-26T06:52:04.614Z,977.21
2019-05-26T06:53:05.005Z,977.21
2019-05-26T06:54:05.470Z,977.18
2019-05-26T06:55:04.888Z,977.21
2019-05-26T06:56:05.267Z,977.18
2019-05-26T06:57:05.366Z,977.16
2019-05-26T06:58:04.542Z,977.21
2019-05-26T06:59:05.546Z,977.15
2019-05-26T07:00:05.297Z,977.27
2019-05-26T07:01:04.807Z,977.13
2019-05-26T07:02:05.188Z,977.13
2019-05-26T07:03:05.446Z,977.30
2019-05-26T07:04:04.573Z,977.24
2019-05-26T07:05:04.650Z,977.24
2019-05-26T07:06:05.060Z,977.18
2019-05-26T07:07:05.241Z,977.20
2019-05-26T07:08:04.491Z,977.20
2019-05-26T07:09:05.163Z,977.26
2019-05-26T07:10:04.905Z,977.38
2019-05-26T07:11:05.191Z,977.40
2019-05-26T07:12:05.462Z,977.26
2019-05-26T07:13:05.005Z,977.25
2019-05-26T07:14:05.071Z,977.31
2019-05-26T07:15:05.224Z,977.31
2019-05-26T07:16:04.955Z,977.19
2019-05-26T07:17:05.424Z,977.30
2019-05-26T07:18:04.894Z,977.27
2019-05-26T07:19:04.475Z,977.21
2019-05-26T07:20:05.409Z,977.32
2019-05-26T07:21:04.816Z,977.35
2019-05-26T07:22:05.225Z,977.32
2019-05-26T07:23:08.426Z,977.26
2019-05-26T07:24:05.031Z,977.34
2019-05-26T07:25:05.562Z,977.25
2019-05-26T07:26:04.546Z,977.16
2019-05-26T07:27:04.691Z,977.28
2019-05-26T07:28:05.278Z,977.13
2019-05-26T07:29:05.485Z,977.25
2019-05-26T07:30:04.880Z,977.25
2019-05-26T07:31:05.458Z,977.30
2019-05-26T07:32:04.852Z,977.27
2019-05-26T07:33:05.173Z,977.18
2019-05-26T07:34:04.874Z,977.16
2019-05-26T07:35:05.091Z,977.21
2019-05-26T07:36:05.393Z,977.18
2019-05-26T07:37:04.584Z,977.21
2019-05-26T07:38:05.338Z,977.12
2019-05-26T07:39:04.699Z,977.21
2019-05-26T07:40:04.687Z,977.18
2019-05-26T07:41:05.354Z,977.12
2019-05-26T07:42:11.449Z,977.24
2019-05-26T07:43:05.116Z,977.30
2019-05-26T07:44:04.618Z,977.21
2019-05-26T07:45:04.955Z,977.21
2019-05-26T07:46:05.256Z,977.16
2019-05-26T07:47:05.088Z,977.19
2019-05-26T07:48:05.090Z,977.30
2019-05-26T07:49:05.421Z,977.16
2019-05-26T07:50:04.556Z,977.21
2019-05-26T07:51:04.983Z,977.24
2019-05-26T07:52:05.227Z,977.18
2019-05-26T07:53:05.405Z,977.18
2019-05-26T07:54:04.966Z,977.36
2019-05-26T07:55:05.145Z,977.24
2019-05-26T07:56:05.233Z,977.21
2019-05-26T07:57:05.582Z,977.21
2019-05-26T07:58:04.490Z,977.32
2019-05-26T07:59:05.253Z,977.21
2019-05-26T08:00:04.601Z,977.18
2019-05-26T08:01:10.184Z,977.09
2019-05-26T08:02:05.342Z,977.18
2019-05-26T08:03:04.833Z,977.15
2019-05-26T08:04:05.419Z,977.24
2019-05-26T08:05:05.259Z,977.06
2019-05-26T08:06:04.698Z,977.26
2019-05-26T08:07:05.335Z,977.26
2019-05-26T08:08:13.722Z,977.17
2019-05-26T08:09:04.511Z,977.06
2019-05-26T08:10:04.773Z,977.06
2019-05-26T08:11:04.655Z,977.03
2019-05-26T08:12:04.742Z,977.00
2019-05-26T08:13:04.586Z,977.03
2019-05-26T08:14:04.971Z,976.94
2019-05-26T08:15:05.403Z,976.97
2019-05-26T08:16:05.295Z,977.06
2019-05-26T08:17:05.486Z,977.00
2019-05-26T08:18:04.724Z,977.00
2019-05-26T08:19:04.825Z,977.06
2019-05-26T08:20:05.370Z,977.00
2019-05-26T08:21:04.624Z,977.06
2019-05-26T08:22:05.210Z,977.05
2019-05-26T08:23:05.811Z,977.08
2019-05-26T08:24:04.961Z,977.08
2019-05-26T08:25:04.760Z,976.97
2019-05-26T08:26:04.601Z,977.03
2019-05-26T08:27:04.882Z,976.88
2019-05-26T08:28:04.919Z,976.99
2019-05-26T08:29:05.270Z,976.93
2019-05-26T08:30:06.045Z,976.88
2019-05-26T08:31:04.959Z,976.96
2019-05-26T08:32:05.525Z,976.93
2019-05-26T08:33:05.275Z,976.79
2019-05-26T08:34:05.419Z,976.76
2019-05-26T08:35:04.645Z,976.85
2019-05-26T08:36:05.460Z,976.85
2019-05-26T08:37:05.039Z,976.79
2019-05-26T08:38:05.348Z,976.82
2019-05-26T08:39:04.615Z,976.76
2019-05-26T08:40:05.274Z,976.91
2019-05-26T08:41:04.710Z,976.79
2019-05-26T08:42:05.236Z,976.79
2019-05-26T08:43:04.640Z,976.79
2019-05-26T08:44:10.310Z,976.76
2019-05-26T08:45:04.760Z,976.74
2019-05-26T08:46:05.273Z,976.79
2019-05-26T08:47:04.642Z,976.62
2019-05-26T08:48:04.657Z,976.65
2019-05-26T08:49:05.247Z,976.70
2019-05-26T08:50:05.490Z,976.64
2019-05-26T08:51:05.094Z,976.73
2019-05-26T08:52:05.276Z,976.75
2019-05-26T08:53:05.280Z,976.64
2019-05-26T08:54:05.321Z,976.58
2019-05-26T08:55:05.742Z,976.75
2019-05-26T08:56:04.705Z,976.73
2019-05-26T08:57:05.322Z,976.61
2019-05-26T08:58:04.822Z,976.70
2019-05-26T08:59:04.833Z,976.58
2019-05-26T09:00:05.152Z,976.64
2019-05-26T09:01:05.354Z,976.73
2019-05-26T09:02:05.012Z,976.55
2019-05-26T09:03:05.457Z,976.64
2019-05-26T09:04:09.626Z,976.58
2019-05-26T09:05:05.262Z,976.58
2019-05-26T09:06:04.965Z,976.58
2019-05-26T09:07:04.712Z,976.61
2019-05-26T09:08:08.465Z,976.58
2019-05-26T09:09:05.622Z,976.64
2019-05-26T09:10:04.648Z,976.52
2019-05-26T09:11:05.371Z,976.52
2019-05-26T09:12:05.510Z,976.52
2019-05-26T09:13:05.246Z,976.46
2019-05-26T09:14:04.551Z,976.46
2019-05-26T09:15:05.697Z,976.49
2019-05-26T09:16:04.905Z,976.60
2019-05-26T09:17:05.524Z,976.46
2019-05-26T09:18:05.247Z,976.49
2019-05-26T09:19:05.719Z,976.60
2019-05-26T09:20:05.148Z,976.45
2019-05-26T09:21:05.642Z,976.57
2019-05-26T09:22:05.477Z,976.45
2019-05-26T09:23:04.709Z,976.60
2019-05-26T09:24:05.615Z,976.54
2019-05-26T09:25:05.088Z,976.42
2019-05-26T09:26:05.506Z,976.42
2019-05-26T09:27:04.879Z,976.45
2019-05-26T09:28:05.259Z,976.41
2019-05-26T09:29:04.771Z,976.47
2019-05-26T09:30:05.121Z,976.35
2019-05-26T09:31:05.535Z,976.44
2019-05-26T09:32:05.109Z,976.29
2019-05-26T09:33:05.890Z,976.35
2019-05-26T09:34:05.756Z,976.35
2019-05-26T09:35:04.846Z,976.32
2019-05-26T09:36:05.488Z,976.29
2019-05-26T09:37:05.495Z,976.35
2019-05-26T09:38:05.350Z,976.32
2019-05-26T09:39:05.756Z,976.35
2019-05-26T09:40:05.132Z,976.35
2019-05-26T09:41:05.417Z,976.35
2019-05-26T09:42:04.997Z,976.23
2019-05-26T09:43:16.856Z,976.26
2019-05-26T09:44:04.954Z,976.17
2019-05-26T09:45:05.298Z,976.32
2019-05-26T09:46:04.551Z,976.17
2019-05-26T09:47:04.648Z,976.37
2019-05-26T09:48:05.698Z,976.31
2019-05-26T09:49:05.171Z,976.14
2019-05-26T09:50:04.871Z,976.17
2019-05-26T09:51:05.808Z,976.22
2019-05-26T09:52:05.141Z,976.13
2019-05-26T09:53:05.608Z,976.16
2019-05-26T09:54:05.526Z,976.13
2019-05-26T09:55:04.954Z,976.07
2019-05-26T09:56:05.419Z,976.19
2019-05-26T09:57:04.534Z,976.16
2019-05-26T09:58:04.891Z,976.25
2019-05-26T09:59:05.345Z,976.25
2019-05-26T10:00:05.283Z,976.22
2019-05-26T10:01:05.061Z,976.07
2019-05-26T10:02:05.276Z,976.13
2019-05-26T10:03:04.742Z,976.04
2019-05-26T10:04:09.854Z,976.18
2019-05-26T10:05:05.429Z,976.07
2019-05-26T10:06:05.114Z,975.95
2019-05-26T10:07:05.056Z,976.06
2019-05-26T10:08:05.553Z,976.03
2019-05-26T10:09:05.125Z,976.06
2019-05-26T10:10:05.321Z,976.09
2019-05-26T10:11:05.022Z,976.09
2019-05-26T10:12:05.280Z,976.06
2019-05-26T10:13:05.124Z,976.03
2019-05-26T10:14:05.283Z,976.06
2019-05-26T10:15:04.672Z,975.97
2019-05-26T10:16:05.043Z,975.97
2019-05-26T10:17:04.589Z,976.00
2019-05-26T10:18:05.111Z,975.88
2019-05-26T10:19:05.538Z,975.99
2019-05-26T10:20:04.940Z,975.88
2019-05-26T10:21:05.197Z,976.02
2019-05-26T10:22:05.605Z,975.96
2019-05-26T10:23:05.302Z,975.93
2019-05-26T10:24:04.666Z,975.81
2019-05-26T10:25:05.197Z,975.93
2019-05-26T10:26:05.408Z,975.90
2019-05-26T10:27:05.083Z,975.90
2019-05-26T10:28:05.959Z,975.98
2019-05-26T10:29:05.469Z,975.93
2019-05-26T10:30:05.623Z,975.93
2019-05-26T10:31:05.296Z,975.90
2019-05-26T10:32:05.543Z,975.78
2019-05-26T10:33:05.825Z,975.96
2019-05-26T10:34:04.961Z,975.96
2019-05-26T10:35:05.369Z,975.98
2019-05-26T10:36:04.777Z,975.89
2019-05-26T10:37:05.205Z,976.07
2019-05-26T10:38:05.088Z,975.98
2019-05-26T10:39:04.847Z,976.04
2019-05-26T10:40:05.680Z,975.83
2019-05-26T10:41:05.675Z,975.86
2019-05-26T10:42:05.613Z,975.89
2019-05-26T10:43:05.076Z,975.80
2019-05-26T10:44:10.574Z,975.92
2019-05-26T10:45:05.441Z,975.74
2019-05-26T10:46:05.351Z,975.86
2019-05-26T10:47:04.929Z,975.89
2019-05-26T10:48:05.543Z,975.83
2019-05-26T10:49:05.228Z,975.83
2019-05-26T10:50:05.409Z,975.86
2019-05-26T10:51:07.517Z,975.77
2019-05-26T10:52:05.889Z,975.65
2019-05-26T10:53:05.585Z,975.79
2019-05-26T10:54:05.726Z,975.59
2019-05-26T10:55:05.128Z,975.79
2019-05-26T10:56:05.063Z,975.82
2019-05-26T10:57:05.566Z,975.74
2019-05-26T10:58:05.538Z,975.68
2019-05-26T10:59:04.856Z,975.71
2019-05-26T11:00:05.274Z,975.68
2019-05-26T11:01:05.709Z,975.65
2019-05-26T11:02:05.139Z,975.68
2019-05-26T11:03:05.368Z,975.65
2019-05-26T11:04:05.042Z,975.68
2019-05-26T11:05:06.002Z,975.53
2019-05-26T11:06:07.129Z,975.71
2019-05-26T11:07:05.334Z,975.62
2019-05-26T11:08:05.327Z,975.62
2019-05-26T11:09:05.289Z,975.71
2019-05-26T11:10:06.072Z,975.70
2019-05-26T11:11:06.139Z,975.70
2019-05-26T11:12:05.230Z,975.64
2019-05-26T11:13:05.388Z,975.59
2019-05-26T11:14:05.195Z,975.68
2019-05-26T11:15:05.340Z,975.53
2019-05-26T11:16:05.618Z,975.59
2019-05-26T11:17:06.038Z,975.65
2019-05-26T11:18:05.997Z,975.51
2019-05-26T11:19:05.964Z,975.65
2019-05-26T11:20:05.686Z,975.53
2019-05-26T11:21:05.541Z,975.53
2019-05-26T11:22:05.415Z,975.47
2019-05-26T11:23:05.325Z,975.50
2019-05-26T11:24:06.057Z,975.65
2019-05-26T11:25:05.954Z,975.38
2019-05-26T11:26:05.298Z,975.50
2019-05-26T11:27:13.482Z,975.44
2019-05-26T11:28:05.198Z,975.41
2019-05-26T11:29:06.078Z,975.56
2019-05-26T11:30:05.693Z,975.41
2019-05-26T11:31:05.742Z,975.44
2019-05-26T11:32:05.995Z,975.53
2019-05-26T11:33:05.965Z,975.38
2019-05-26T11:34:05.780Z,975.35
2019-05-26T11:35:05.330Z,975.41
2019-05-26T11:36:06.061Z,975.30
2019-05-26T11:37:05.421Z,975.47
2019-05-26T11:38:05.141Z,975.30
2019-05-26T11:39:05.824Z,975.33
2019-05-26T11:40:05.714Z,975.30
2019-05-26T11:41:05.641Z,975.24
2019-05-26T11:42:14.391Z,975.33
2019-05-26T11:43:17.545Z,975.29
2019-05-26T11:44:18.427Z,975.20
2019-05-26T11:45:06.305Z,975.32
2019-05-26T11:46:05.208Z,975.29
2019-05-26T11:47:05.968Z,975.23
2019-05-26T11:48:05.979Z,975.29
2019-05-26T11:49:06.026Z,975.26
2019-05-26T11:50:05.682Z,975.32
2019-05-26T11:51:06.123Z,975.15
2019-05-26T11:52:06.151Z,975.15
2019-05-26T11:53:05.924Z,975.18
2019-05-26T11:54:05.655Z,975.21
2019-05-26T11:55:06.072Z,975.09
2019-05-26T11:56:05.310Z,975.09
2019-05-26T11:57:05.976Z,975.18
2019-05-26T11:58:05.837Z,975.09
2019-05-26T11:59:05.271Z,975.27
2019-05-26T12:00:05.983Z,975.12
2019-05-26T12:01:05.474Z,975.12
2019-05-26T12:02:05.353Z,975.23
2019-05-26T12:03:05.945Z,975.11
2019-05-26T12:04:10.592Z,975.14
2019-05-26T12:05:05.436Z,975.11
2019-05-26T12:06:05.369Z,975.11
2019-05-26T12:07:05.310Z,975.20
2019-05-26T12:08:05.158Z,975.17
2019-05-26T12:09:06.003Z,975.11
2019-05-26T12:10:05.832Z,975.11
2019-05-26T12:11:05.449Z,975.14
2019-05-26T12:12:05.221Z,974.99
2019-05-26T12:13:05.657Z,974.99
2019-05-26T12:14:05.645Z,974.96
2019-05-26T12:15:06.120Z,975.02
2019-05-26T12:16:05.758Z,974.96
2019-05-26T12:17:04.987Z,975.14
2019-05-26T12:18:05.396Z,974.94
2019-05-26T12:19:05.817Z,975.02
2019-05-26T12:20:05.935Z,974.88
2019-05-26T12:21:05.218Z,974.91
2019-05-26T12:22:05.735Z,974.99
2019-05-26T12:23:05.004Z,974.91
2019-05-26T12:24:05.563Z,974.99
2019-05-26T12:25:05.638Z,974.79
2019-05-26T12:26:05.049Z,974.88
2019-05-26T12:27:05.750Z,974.91
2019-05-26T12:28:05.601Z,974.91